createdAt,value
2023-03-27T00:00:20.872Z,99119.41
2023-03-27T00:02:50.777Z,99119.66
2023-03-27T00:05:21.939Z,99113.63
2023-03-27T00:07:56.924Z,99117.38
2023-03-27T00:10:26.607Z,99003.81
2023-03-27T00:12:58.140Z,99108.06
2023-03-27T00:15:29.591Z,98977.31
2023-03-27T00:18:04.394Z,99108.56
2023-03-27T00:20:37.691Z,98964.88
2023-03-27T00:23:11.101Z,99107.59
2023-03-27T00:25:41.366Z,99074.31
2023-03-27T00:28:10.874Z,99105.88
2023-03-27T00:30:40.989Z,99088.53
2023-03-27T00:33:16.806Z,99119.75
2023-03-27T00:35:50.306Z,99087.47
2023-03-27T00:38:24.708Z,99004.25
2023-03-27T00:40:57.877Z,99104.94
2023-03-27T00:43:33.937Z,99112.72
2023-03-27T00:46:08.823Z,99087.22
2023-03-27T00:48:40.500Z,99073.25
2023-03-27T00:51:10.881Z,99103.84
2023-03-27T00:53:42.743Z,99082.06
2023-03-27T00:56:12.979Z,99078.50
2023-03-27T00:58:46.406Z,99084.47
2023-03-27T01:01:18.238Z,99114.19
2023-03-27T01:03:49.234Z,99122.66
2023-03-27T01:06:20.034Z,99115.28
2023-03-27T01:08:50.621Z,99113.16
2023-03-27T01:11:32.930Z,99094.06
2023-03-27T01:14:15.904Z,99120.28
2023-03-27T01:16:55.812Z,99122.91
2023-03-27T01:20:14.903Z,99123.84
2023-03-27T01:23:11.453Z,99104.44
2023-03-27T01:26:36.241Z,99116.00
2023-03-27T01:29:16.555Z,99117.88
2023-03-27T01:32:04.618Z,98898.84
2023-03-27T01:35:01.322Z,99057.81
2023-03-27T01:38:04.308Z,99086.94
2023-03-27T01:40:42.831Z,99117.16
2023-03-27T01:43:28.891Z,99096.13
2023-03-27T01:46:11.926Z,99100.34
2023-03-27T01:48:47.489Z,99082.66
2023-03-27T01:51:24.220Z,99124.63
2023-03-27T01:54:00.034Z,99080.22
2023-03-27T01:56:37.689Z,99052.88
2023-03-27T01:59:16.551Z,99092.22
2023-03-27T02:01:52.952Z,99084.25
2023-03-27T02:04:30.122Z,99059.94
2023-03-27T02:07:12.987Z,99075.78
2023-03-27T02:09:50.475Z,99066.94
2023-03-27T02:12:28.188Z,99000.72
2023-03-27T02:15:23.706Z,99083.84
2023-03-27T02:17:57.423Z,99100.75
2023-03-27T02:20:27.302Z,99096.44
2023-03-27T02:23:01.875Z,99096.78
2023-03-27T02:25:33.611Z,99088.59
2023-03-27T02:28:36.388Z,98976.13
2023-03-27T02:31:33.648Z,99108.69
2023-03-27T02:34:33.950Z,99114.59
2023-03-27T02:37:17.706Z,99128.66
2023-03-27T02:40:28.811Z,99081.53
2023-03-27T02:43:21.414Z,99104.66
2023-03-27T02:46:11.059Z,99070.06
2023-03-27T02:48:49.552Z,99123.88
2023-03-27T02:51:28.872Z,99094.84
2023-03-27T02:54:07.001Z,99086.16
2023-03-27T02:56:45.532Z,99003.19
2023-03-27T02:59:31.140Z,99170.63
2023-03-27T03:02:12.614Z,99082.56
2023-03-27T03:05:07.468Z,99168.34
2023-03-27T03:07:41.823Z,99190.97
2023-03-27T03:10:14.995Z,99166.91
2023-03-27T03:12:46.422Z,99039.28
2023-03-27T03:15:17.091Z,99160.66
2023-03-27T03:17:47.679Z,99148.25
2023-03-27T03:20:19.797Z,99191.47
2023-03-27T03:22:53.863Z,99122.25
2023-03-27T03:25:26.811Z,99031.03
2023-03-27T03:27:58.437Z,98997.28
2023-03-27T03:30:29.320Z,99188.41
2023-03-27T03:33:15.324Z,99144.59
2023-03-27T03:35:49.421Z,99134.94
2023-03-27T03:38:38.435Z,99139.31
2023-03-27T03:41:18.499Z,99187.09
2023-03-27T03:43:51.274Z,99185.53
2023-03-27T03:46:23.752Z,99041.81
2023-03-27T03:48:59.851Z,99200.59
2023-03-27T03:51:31.635Z,99183.16
2023-03-27T03:54:01.686Z,99189.41
2023-03-27T03:56:31.770Z,99170.97
2023-03-27T03:59:01.652Z,99150.28
2023-03-27T04:01:32.476Z,99189.88
2023-03-27T04:04:06.385Z,99219.63
2023-03-27T04:06:58.430Z,99195.56
2023-03-27T04:09:33.801Z,99176.41
2023-03-27T04:12:10.702Z,99037.13
2023-03-27T04:14:51.468Z,99132.13
2023-03-27T04:17:48.777Z,99208.88
2023-03-27T04:20:19.871Z,99207.44
2023-03-27T04:22:53.799Z,99133.53
2023-03-27T04:25:31.014Z,99208.16
2023-03-27T04:28:03.647Z,99208.16
2023-03-27T04:30:47.345Z,99148.09
2023-03-27T04:33:41.514Z,99201.38
2023-03-27T04:36:42.637Z,99124.84
2023-03-27T04:39:16.834Z,99218.25
2023-03-27T04:41:49.366Z,99111.69
2023-03-27T04:44:22.884Z,98981.56
2023-03-27T04:46:53.083Z,99061.25
2023-03-27T04:49:24.991Z,99199.78
2023-03-27T04:52:02.871Z,99108.69
2023-03-27T04:54:37.212Z,99135.81
2023-03-27T04:57:07.726Z,99211.94
2023-03-27T04:59:40.756Z,99205.44
2023-03-27T05:02:34.619Z,99209.16
2023-03-27T05:05:27.366Z,99187.63
2023-03-27T05:08:03.930Z,99015.91
2023-03-27T05:10:35.745Z,99070.88
2023-03-27T05:13:13.839Z,99232.56
2023-03-27T05:15:43.748Z,99225.81
2023-03-27T05:18:19.231Z,99122.66
2023-03-27T05:20:54.005Z,99173.56
2023-03-27T05:23:25.032Z,99192.31
2023-03-27T05:25:59.693Z,99228.53
2023-03-27T05:28:39.933Z,99214.63
2023-03-27T05:31:10.864Z,99237.19
2023-03-27T05:33:56.745Z,99021.84
2023-03-27T05:36:29.843Z,99235.50
2023-03-27T05:39:03.618Z,99117.69
2023-03-27T05:41:37.132Z,99238.31
2023-03-27T05:44:29.622Z,99017.00
2023-03-27T05:47:00.181Z,99231.09
2023-03-27T05:49:40.655Z,99232.31
2023-03-27T05:52:55.896Z,99244.22
2023-03-27T05:55:32.770Z,99148.31
2023-03-27T05:58:06.371Z,99233.19
2023-03-27T06:00:36.492Z,99212.69
2023-03-27T06:03:07.250Z,99202.34
2023-03-27T06:06:00.413Z,99040.38
2023-03-27T06:08:37.272Z,99234.91
2023-03-27T06:11:12.902Z,99191.75
2023-03-27T06:13:48.168Z,99247.03
2023-03-27T06:16:25.015Z,99122.72
2023-03-27T06:18:59.801Z,99074.06
2023-03-27T06:21:30.716Z,99140.13
2023-03-27T06:24:07.828Z,99005.63
2023-03-27T06:26:39.452Z,99240.50
2023-03-27T06:29:09.976Z,99245.03
2023-03-27T06:31:48.068Z,99097.75
2023-03-27T06:34:36.171Z,99224.47
2023-03-27T06:37:37.382Z,99237.59
2023-03-27T06:40:10.365Z,99211.16
2023-03-27T06:42:53.477Z,99239.06
2023-03-27T06:45:32.936Z,99234.78
2023-03-27T06:48:31.793Z,99161.50
2023-03-27T06:51:05.372Z,99245.94
2023-03-27T06:53:39.034Z,99035.19
2023-03-27T06:56:10.272Z,99093.16
2023-03-27T06:59:05.780Z,99165.66
2023-03-27T07:01:38.794Z,99149.69
2023-03-27T07:04:48.244Z,99006.66
2023-03-27T07:07:33.714Z,99002.75
2023-03-27T07:10:10.656Z,99228.13
2023-03-27T07:12:44.802Z,99169.16
2023-03-27T07:15:21.551Z,99224.81
2023-03-27T07:17:56.016Z,99040.25
2023-03-27T07:20:29.265Z,99252.66
2023-03-27T07:23:07.998Z,98969.66
2023-03-27T07:26:00.268Z,99206.19
2023-03-27T07:29:03.228Z,99200.03
2023-03-27T07:31:57.547Z,99246.56
2023-03-27T07:34:42.561Z,99269.50
2023-03-27T07:52:30.715Z,99251.75
2023-03-27T07:55:09.020Z,99123.84
2023-03-27T07:58:02.437Z,99242.00
2023-03-27T08:00:44.556Z,99104.69
2023-03-27T08:03:35.173Z,99236.59
2023-03-27T08:06:16.821Z,99165.13
2023-03-27T08:08:51.736Z,99225.63
2023-03-27T08:11:31.307Z,99113.09
2023-03-27T08:14:35.875Z,99255.47
2023-03-27T08:17:17.212Z,99030.16
2023-03-27T08:20:09.686Z,99121.81
2023-03-27T08:22:55.078Z,99156.28
2023-03-27T08:25:35.964Z,99109.94
2023-03-27T08:28:14.910Z,99011.09
2023-03-27T08:30:50.868Z,99258.00
2023-03-27T08:33:30.283Z,99272.19
2023-03-27T08:36:13.480Z,99171.69
2023-03-27T08:38:48.480Z,99177.41
2023-03-27T08:41:39.017Z,99165.69
2023-03-27T08:44:34.854Z,99151.75
2023-03-27T08:47:30.430Z,98992.34
2023-03-27T08:50:48.237Z,99002.41
2023-03-27T08:53:32.704Z,99256.16
2023-03-27T08:56:09.844Z,99051.13
2023-03-27T08:58:44.790Z,99199.22
2023-03-27T09:01:29.772Z,99168.53
2023-03-27T09:04:19.452Z,99223.59
2023-03-27T09:07:14.012Z,99152.53
2023-03-27T09:10:18.217Z,99094.47
2023-03-27T09:13:05.453Z,99012.28
2023-03-27T09:15:47.971Z,99227.91
2023-03-27T09:18:22.767Z,99081.19
2023-03-27T09:20:59.991Z,99228.72
2023-03-27T09:23:34.938Z,99201.84
2023-03-27T09:26:22.712Z,99228.78
2023-03-27T09:29:19.949Z,99219.66
2023-03-27T09:31:59.106Z,99212.88
2023-03-27T09:34:32.291Z,99202.50
2023-03-27T09:37:04.674Z,98995.56
2023-03-27T09:39:37.177Z,99184.31
2023-03-27T09:42:25.423Z,99199.91
2023-03-27T09:44:58.368Z,99206.41
2023-03-27T09:47:38.920Z,99028.50
2023-03-27T09:50:27.783Z,99203.88
2023-03-27T09:53:21.310Z,99170.94
2023-03-27T09:56:14.534Z,99073.59
2023-03-27T09:58:54.938Z,99122.50
2023-03-27T10:01:31.088Z,99183.69
2023-03-27T10:04:17.481Z,99128.00
2023-03-27T10:06:56.261Z,99199.13
2023-03-27T10:09:35.669Z,99190.97
2023-03-27T10:12:18.143Z,99139.78
2023-03-27T10:14:56.606Z,99190.75
2023-03-27T10:17:38.541Z,99193.41
2023-03-27T10:20:21.684Z,99183.66
2023-03-27T10:22:57.009Z,99143.66
2023-03-27T10:25:34.576Z,99152.47
2023-03-27T10:28:35.772Z,99080.06
2023-03-27T10:31:34.393Z,99174.41
2023-03-27T10:34:35.804Z,99185.38
2023-03-27T10:37:53.102Z,99060.97
2023-03-27T10:40:53.908Z,99008.13
2023-03-27T10:44:34.694Z,99068.84
2023-03-27T10:47:05.907Z,99080.28
2023-03-27T10:49:44.543Z,99068.44
2023-03-27T10:52:30.432Z,99169.19
2023-03-27T10:55:32.742Z,99182.63
2023-03-27T10:58:15.639Z,99187.16
2023-03-27T11:00:57.337Z,99051.31
2023-03-27T11:03:36.015Z,98977.19
2023-03-27T11:06:21.276Z,99099.81
2023-03-27T11:09:05.959Z,99170.28
2023-03-27T11:11:51.538Z,99071.91
2023-03-27T11:14:33.816Z,98988.94
2023-03-27T11:17:13.905Z,99060.91
2023-03-27T11:20:08.696Z,99013.00
2023-03-27T11:23:06.336Z,98985.44
2023-03-27T11:26:12.964Z,99039.28
2023-03-27T11:28:57.981Z,98995.47
2023-03-27T11:31:46.579Z,99077.28
2023-03-27T11:34:36.650Z,98949.69
2023-03-27T11:38:20.992Z,98935.28
2023-03-27T11:40:54.766Z,99079.38
2023-03-27T11:43:34.205Z,99092.97
2023-03-27T11:46:26.635Z,99155.56
2023-03-27T11:50:03.692Z,98958.00
2023-03-27T11:52:49.267Z,98955.41
2023-03-27T11:55:39.501Z,99112.69
2023-03-27T11:58:27.260Z,99114.75
2023-03-27T12:01:08.175Z,99108.56
2023-03-27T12:04:09.256Z,99130.38
2023-03-27T12:07:35.307Z,99133.69
2023-03-27T12:10:30.556Z,99099.59
2023-03-27T12:13:40.555Z,99047.31
2023-03-27T12:16:50.522Z,99125.19
2023-03-27T12:19:44.765Z,98902.75
2023-03-27T12:22:38.900Z,98939.81
2023-03-27T12:26:01.454Z,99025.19
2023-03-27T12:29:38.817Z,99114.41
2023-03-27T12:32:29.918Z,99104.97
2023-03-27T12:35:10.399Z,99064.19
2023-03-27T12:37:52.947Z,99012.78
2023-03-27T12:40:45.131Z,99039.25
2023-03-27T12:43:36.463Z,98901.63
2023-03-27T12:46:36.951Z,98963.47
2023-03-27T12:49:48.224Z,98975.53
2023-03-27T12:52:31.135Z,99065.53
2023-03-27T12:55:35.940Z,99015.94
2023-03-27T12:58:09.161Z,99027.38
2023-03-27T13:01:01.072Z,99072.31
2023-03-27T13:04:15.254Z,98884.38
2023-03-27T13:07:03.097Z,99098.97
2023-03-27T13:10:24.240Z,99090.16
2023-03-27T13:13:14.414Z,99086.41
2023-03-27T13:16:14.289Z,99088.94
2023-03-27T13:19:01.327Z,99064.16
2023-03-27T13:21:42.254Z,99084.75
2023-03-27T13:24:32.607Z,99091.41
2023-03-27T13:27:18.447Z,98973.06
2023-03-27T13:29:55.165Z,99083.38
2023-03-27T13:32:40.835Z,99049.63
2023-03-27T13:35:47.315Z,98995.03
2023-03-27T13:38:21.798Z,99016.69
2023-03-27T13:41:46.051Z,99070.22
2023-03-27T13:44:35.804Z,99014.59
2023-03-27T13:47:33.261Z,99072.66
2023-03-27T13:50:27.040Z,99066.75
2023-03-27T13:53:29.537Z,98953.44
2023-03-27T14:00:10.565Z,99037.09
2023-03-27T14:03:23.345Z,99028.41
2023-03-27T14:06:27.779Z,99052.03
2023-03-27T14:09:16.103Z,99054.84
2023-03-27T14:12:18.577Z,99056.41
2023-03-27T14:15:51.236Z,98869.53
2023-03-27T14:18:59.740Z,99057.78
2023-03-27T14:21:50.677Z,98934.34
2023-03-27T14:24:30.540Z,99048.41
2023-03-27T14:27:16.707Z,99029.75
2023-03-27T14:29:46.299Z,99000.28
2023-03-27T14:32:21.104Z,99044.41
2023-03-27T14:35:05.815Z,99047.41
2023-03-27T14:37:45.121Z,99012.28
2023-03-27T14:40:50.592Z,98984.06
2023-03-27T14:43:23.912Z,99008.13
2023-03-27T14:46:01.030Z,99036.59
2023-03-27T14:48:37.680Z,98951.25
2023-03-27T14:51:20.906Z,99011.66
2023-03-27T14:53:53.553Z,99038.59
2023-03-27T14:56:52.205Z,99013.63
2023-03-27T14:59:43.036Z,98936.09
2023-03-27T15:02:22.231Z,99018.09
2023-03-27T15:05:19.070Z,98864.25
2023-03-27T15:07:56.017Z,98900.63
2023-03-27T15:10:52.759Z,98975.44
2023-03-27T15:14:03.801Z,99015.22
2023-03-27T15:21:05.777Z,98890.06
2023-03-27T15:23:56.664Z,98891.25
2023-03-27T15:26:33.246Z,98933.03
2023-03-27T15:29:14.132Z,99020.72
2023-03-27T15:31:50.752Z,98832.78
2023-03-27T15:34:25.665Z,98927.13
2023-03-27T15:37:00.736Z,98880.50
2023-03-27T15:39:33.110Z,98865.22
2023-03-27T15:42:06.915Z,98992.09
2023-03-27T15:44:38.657Z,99016.34
2023-03-27T15:47:31.372Z,98939.44
2023-03-27T15:50:44.775Z,98816.28
2023-03-27T15:53:34.664Z,98894.06
2023-03-27T15:56:11.223Z,98868.13
2023-03-27T15:58:49.553Z,99007.59
2023-03-27T16:01:24.850Z,99020.66
2023-03-27T16:03:59.354Z,99007.97
2023-03-27T16:06:37.075Z,98873.59
2023-03-27T16:09:21.612Z,98945.28
2023-03-27T16:11:54.359Z,98867.75
2023-03-27T16:14:32.775Z,98953.91
2023-03-27T16:17:25.065Z,98855.09
2023-03-27T16:20:00.276Z,98854.84
2023-03-27T16:22:37.557Z,98914.03
2023-03-27T16:25:16.222Z,98823.25
2023-03-27T16:27:49.282Z,99024.72
2023-03-27T16:30:30.035Z,98990.81
2023-03-27T16:33:04.605Z,98818.97
2023-03-27T16:35:35.111Z,98928.19
2023-03-27T16:38:08.945Z,99008.19
2023-03-27T16:40:39.480Z,98786.91
2023-03-27T16:43:11.390Z,98929.16
2023-03-27T16:45:47.873Z,98974.03
2023-03-27T16:48:17.778Z,98921.16
2023-03-27T16:50:48.059Z,99009.50
2023-03-27T16:53:25.496Z,98884.81
2023-03-27T16:55:58.849Z,98939.53
2023-03-27T16:59:11.537Z,98893.81
2023-03-27T17:01:42.878Z,99016.78
2023-03-27T17:04:54.418Z,98783.13
2023-03-27T17:07:47.653Z,98986.50
2023-03-27T17:10:49.440Z,99015.78
2023-03-27T17:13:23.269Z,98928.75
2023-03-27T17:15:53.537Z,98997.94
2023-03-27T17:18:26.713Z,98949.53
2023-03-27T17:21:14.499Z,99023.06
2023-03-27T17:24:06.935Z,98881.41
2023-03-27T17:29:42.182Z,98795.31
2023-03-27T17:32:16.035Z,99037.16
2023-03-27T17:34:47.040Z,98975.16
2023-03-27T17:37:27.798Z,98843.47
2023-03-27T17:40:03.171Z,98796.91
2023-03-27T17:42:33.342Z,98935.25
2023-03-27T17:45:03.209Z,98846.63
2023-03-27T17:47:35.240Z,98999.31
2023-03-27T17:50:10.409Z,99019.94
2023-03-27T17:52:40.259Z,99016.97
2023-03-27T17:55:13.338Z,98940.19
2023-03-27T17:57:53.142Z,98932.34
2023-03-27T18:00:30.031Z,99010.03
2023-03-27T18:03:18.256Z,99012.09
2023-03-27T18:05:55.263Z,98893.41
2023-03-27T18:08:35.884Z,98938.72
2023-03-27T18:11:13.687Z,98848.84
2023-03-27T18:14:13.955Z,99015.50
2023-03-27T18:16:51.670Z,99028.59
2023-03-27T18:19:28.294Z,98969.41
2023-03-27T18:22:00.462Z,99007.09
2023-03-27T18:24:34.505Z,98918.66
2023-03-27T18:27:16.793Z,98880.59
2023-03-27T18:29:49.381Z,98941.63
2023-03-27T18:32:22.827Z,98957.41
2023-03-27T18:34:55.695Z,99008.69
2023-03-27T18:37:29.426Z,98897.03
2023-03-27T18:40:02.426Z,98952.16
2023-03-27T18:43:13.751Z,98914.72
2023-03-27T18:45:47.761Z,98799.06
2023-03-27T18:48:21.331Z,98906.84
2023-03-27T18:50:58.925Z,98793.34
2023-03-27T18:56:47.953Z,98779.53
2023-03-27T18:59:30.414Z,98784.72
2023-03-27T19:02:09.868Z,98782.41
2023-03-27T19:07:59.517Z,98834.16
2023-03-27T19:10:31.131Z,98869.28
2023-03-27T19:13:50.217Z,98807.97
2023-03-27T19:17:01.606Z,99014.38
2023-03-27T19:19:55.142Z,98933.81
2023-03-27T19:22:51.721Z,98766.22
2023-03-27T19:25:42.040Z,98897.22
2023-03-27T19:28:13.230Z,98900.03
2023-03-27T19:30:46.315Z,98885.00
2023-03-27T19:33:19.932Z,98908.09
2023-03-27T19:36:03.203Z,98865.91
2023-03-27T19:38:39.520Z,98737.03
2023-03-27T19:41:17.943Z,98885.31
2023-03-27T19:43:50.373Z,98879.97
2023-03-27T19:46:19.891Z,98881.66
2023-03-27T19:49:08.860Z,98956.88
2023-03-27T19:52:02.165Z,98825.19
2023-03-27T19:54:31.691Z,98777.44
2023-03-27T19:57:10.065Z,98745.38
2023-03-27T19:59:41.898Z,98768.06
2023-03-27T20:02:15.517Z,98921.09
2023-03-27T20:04:49.215Z,98947.34
2023-03-27T20:07:21.249Z,98716.97
2023-03-27T20:09:55.977Z,98847.41
2023-03-27T20:12:27.029Z,98931.13
2023-03-27T20:15:11.675Z,98931.31
2023-03-27T20:17:47.518Z,98933.13
2023-03-27T20:21:09.384Z,98930.13
2023-03-27T20:23:59.823Z,98710.13
2023-03-27T20:26:39.892Z,98912.75
2023-03-27T20:29:18.730Z,98674.38
2023-03-27T20:31:52.036Z,98762.06
2023-03-27T20:34:26.632Z,98928.78
2023-03-27T20:36:59.992Z,98860.94
2023-03-27T20:39:55.138Z,98703.28
2023-03-27T20:42:47.059Z,98778.09
2023-03-27T20:45:19.699Z,98858.56
2023-03-27T20:47:49.860Z,98855.59
2023-03-27T20:50:19.295Z,98851.25
2023-03-27T20:53:19.084Z,98908.53
2023-03-27T20:55:59.251Z,98917.56
2023-03-27T20:58:37.829Z,98707.97
2023-03-27T21:01:13.315Z,98801.81
2023-03-27T21:03:46.857Z,98909.22
2023-03-27T21:06:21.370Z,98908.56
2023-03-27T21:08:54.234Z,98875.31
2023-03-27T21:11:25.582Z,98897.69
2023-03-27T21:13:55.936Z,98894.69
2023-03-27T21:16:30.252Z,98797.81
2023-03-27T21:19:09.920Z,98863.75
2023-03-27T21:23:09.070Z,98807.81
2023-03-27T21:25:35.742Z,98797.44
2023-03-27T21:28:10.843Z,98894.16
2023-03-27T21:30:48.541Z,98872.53
2023-03-27T21:33:31.267Z,98679.59
2023-03-27T21:36:04.228Z,98651.03
2023-03-27T21:38:36.518Z,98734.00
2023-03-27T21:41:20.814Z,98739.50
2023-03-27T21:43:53.664Z,98798.41
2023-03-27T21:46:23.399Z,98860.72
2023-03-27T21:48:56.339Z,98789.69
2023-03-27T21:51:26.112Z,98792.03
2023-03-27T21:53:55.531Z,98740.16
2023-03-27T21:56:30.586Z,98810.41
2023-03-27T21:59:02.993Z,98655.56
2023-03-27T22:01:34.979Z,98683.59
2023-03-27T22:04:06.972Z,98728.31
2023-03-27T22:06:39.125Z,98863.56
2023-03-27T22:09:11.194Z,98763.72
2023-03-27T22:11:41.139Z,98859.22
2023-03-27T22:14:11.163Z,98822.44
2023-03-27T22:16:41.217Z,98758.03
2023-03-27T22:19:14.977Z,98705.63
2023-03-27T22:21:45.018Z,98843.38
2023-03-27T22:24:15.257Z,98695.44
2023-03-27T22:26:44.931Z,98799.13
2023-03-27T22:29:14.681Z,98858.75
2023-03-27T22:31:46.600Z,98812.13
2023-03-27T22:34:18.154Z,98784.44
2023-03-27T22:36:47.594Z,98790.09
2023-03-27T22:39:17.326Z,98868.59
2023-03-27T22:41:51.595Z,98626.16
2023-03-27T22:44:21.605Z,98868.25
2023-03-27T22:46:52.165Z,98713.81
2023-03-27T22:49:23.689Z,98571.47
2023-03-27T22:51:56.093Z,98746.69
2023-03-27T22:54:25.681Z,98848.84
2023-03-27T22:56:58.642Z,98846.53
2023-03-27T22:59:29.259Z,98819.47
2023-03-27T23:01:59.112Z,98714.97
2023-03-27T23:04:31.431Z,98659.56
2023-03-27T23:07:02.617Z,98662.72
2023-03-27T23:09:34.797Z,98836.63
2023-03-27T23:12:04.832Z,98833.31
2023-03-27T23:14:36.723Z,98808.28
2023-03-27T23:17:09.836Z,98854.56
2023-03-27T23:19:43.817Z,98632.88
2023-03-27T23:22:13.226Z,98826.00
2023-03-27T23:24:43.068Z,98663.59
2023-03-27T23:27:14.781Z,98673.22
2023-03-27T23:29:44.428Z,98789.63
2023-03-27T23:32:15.466Z,98793.13
2023-03-27T23:34:46.642Z,98791.44
2023-03-27T23:37:16.071Z,98575.31
2023-03-27T23:39:46.480Z,98664.22
2023-03-27T23:42:16.102Z,98594.78
2023-03-27T23:44:45.689Z,98649.91
2023-03-27T23:47:15.950Z,98727.34
2023-03-27T23:49:49.520Z,98788.09
2023-03-27T23:52:18.776Z,98797.13
2023-03-27T23:54:48.284Z,98793.94
2023-03-27T23:57:18.758Z,98758.22
2023-03-27T23:59:51.181Z,98805.31
